sensor_id;sensor_type;location;lat;lon;timestamp;pressure;altitude;pressure_sealevel;temperature;humidity
13241;BME280;6687;47.790;7.322;2022-12-29T06:12:42;98609.25;;;10.38;89.71
13241;BME280;6687;47.790;7.322;2022-12-29T06:15:10;98610.97;;;10.35;89.59
13241;BME280;6687;47.790;7.322;2022-12-29T06:17:37;98610.97;;;10.35;89.44
13241;BME280;6687;47.790;7.322;2022-12-29T06:20:04;98611.00;;;10.31;89.29
13241;BME280;6687;47.790;7.322;2022-12-29T06:22:31;98615.28;;;10.26;89.35
13241;BME280;6687;47.790;7.322;2022-12-29T06:24:58;98607.50;;;10.24;89.52
13241;BME280;6687;47.790;7.322;2022-12-29T06:27:25;98609.25;;;10.22;89.73
13241;BME280;6687;47.790;7.322;2022-12-29T06:29:53;98611.84;;;10.21;89.81
13241;BME280;6687;47.790;7.322;2022-12-29T06:32:20;98615.28;;;10.16;89.91
13241;BME280;6687;47.790;7.322;2022-12-29T06:34:47;98614.47;;;10.13;90.02
13241;BME280;6687;47.790;7.322;2022-12-29T06:37:13;98617.88;;;10.10;90.11
13241;BME280;6687;47.790;7.322;2022-12-29T06:39:41;98608.38;;;10.12;90.24
13241;BME280;6687;47.790;7.322;2022-12-29T06:42:09;98620.50;;;10.09;90.07
13241;BME280;6687;47.790;7.322;2022-12-29T06:44:36;98617.06;;;10.05;90.31
13241;BME280;6687;47.790;7.322;2022-12-29T06:47:04;98627.41;;;10.11;90.46
13241;BME280;6687;47.790;7.322;2022-12-29T06:49:31;98610.97;;;10.12;90.27
13241;BME280;6687;47.790;7.322;2022-12-29T06:51:57;98618.78;;;10.09;90.06
13241;BME280;6687;47.790;7.322;2022-12-29T06:54:26;98610.09;;;10.16;89.87
13241;BME280;6687;47.790;7.322;2022-12-29T06:56:52;98616.16;;;10.15;89.67
13241;BME280;6687;47.790;7.322;2022-12-29T06:59:19;98622.22;;;10.21;89.18
13241;BME280;6687;47.790;7.322;2022-12-29T07:01:46;98622.19;;;10.24;89.11
13241;BME280;6687;47.790;7.322;2022-12-29T07:04:14;98627.38;;;10.27;88.71
13241;BME280;6687;47.790;7.322;2022-12-29T07:06:41;98625.66;;;10.32;88.57
13241;BME280;6687;47.790;7.322;2022-12-29T07:09:08;98627.38;;;10.30;88.18
13241;BME280;6687;47.790;7.322;2022-12-29T07:11:35;98637.72;;;10.36;87.74
13241;BME280;6687;47.790;7.322;2022-12-29T07:14:02;98623.91;;;10.37;87.32
13241;BME280;6687;47.790;7.322;2022-12-29T07:16:29;98631.66;;;10.40;87.17
13241;BME280;6687;47.790;7.322;2022-12-29T07:18:56;98636.00;;;10.41;87.08
13241;BME280;6687;47.790;7.322;2022-12-29T07:21:25;98632.56;;;10.33;86.77
13241;BME280;6687;47.790;7.322;2022-12-29T07:23:53;98637.72;;;10.39;86.88
13241;BME280;6687;47.790;7.322;2022-12-29T07:26:20;98639.44;;;10.40;86.90
13241;BME280;6687;47.790;7.322;2022-12-29T07:28:47;98654.97;;;10.40;87.07
13241;BME280;6687;47.790;7.322;2022-12-29T07:31:15;98650.66;;;10.45;86.86
13241;BME280;6687;47.790;7.322;2022-12-29T07:33:42;98657.56;;;10.45;86.98
13241;BME280;6687;47.790;7.322;2022-12-29T07:36:10;98661.88;;;10.41;86.98
13241;BME280;6687;47.790;7.322;2022-12-29T07:38:38;98658.44;;;10.47;86.92
13241;BME280;6687;47.790;7.322;2022-12-29T07:41:05;98657.56;;;10.52;86.60
13241;BME280;6687;47.790;7.322;2022-12-29T07:43:32;98656.69;;;10.50;85.92
13241;BME280;6687;47.790;7.322;2022-12-29T07:45:59;98661.84;;;10.57;86.06
13241;BME280;6687;47.790;7.322;2022-12-29T07:48:26;98661.84;;;10.57;85.85
13241;BME280;6687;47.790;7.322;2022-12-29T07:50:53;98660.97;;;10.56;86.09
13241;BME280;6687;47.790;7.322;2022-12-29T07:53:20;98654.06;;;10.60;85.59
13241;BME280;6687;47.790;7.322;2022-12-29T07:55:48;98666.13;;;10.64;85.18
13241;BME280;6687;47.790;7.322;2022-12-29T07:58:15;98666.13;;;10.70;84.55
13241;BME280;6687;47.790;7.322;2022-12-29T08:00:41;98664.38;;;10.72;83.74
13241;BME280;6687;47.790;7.322;2022-12-29T08:03:08;98664.34;;;10.78;83.49
13241;BME280;6687;47.790;7.322;2022-12-29T08:05:35;98661.78;;;10.72;83.55
13241;BME280;6687;47.790;7.322;2022-12-29T08:08:02;98647.94;;;10.76;83.27
13241;BME280;6687;47.790;7.322;2022-12-29T08:10:28;98651.41;;;10.78;83.21
13241;BME280;6687;47.790;7.322;2022-12-29T08:12:57;98660.88;;;10.85;82.76
13241;BME280;6687;47.790;7.322;2022-12-29T08:15:24;98668.66;;;10.87;82.51
13241;BME280;6687;47.790;7.322;2022-12-29T08:17:50;98666.06;;;10.87;81.95
13241;BME280;6687;47.790;7.322;2022-12-29T08:20:17;98676.38;;;10.96;82.08
13241;BME280;6687;47.790;7.322;2022-12-29T08:22:44;98670.34;;;10.99;81.90
13241;BME280;6687;47.790;7.322;2022-12-29T08:25:11;98669.44;;;11.00;81.96
13241;BME280;6687;47.790;7.322;2022-12-29T08:27:37;98672.91;;;11.05;81.85
13241;BME280;6687;47.790;7.322;2022-12-29T08:30:07;98687.56;;;11.06;81.68
13241;BME280;6687;47.790;7.322;2022-12-29T08:32:34;98681.53;;;11.07;81.66
13241;BME280;6687;47.790;7.322;2022-12-29T08:35:01;98684.09;;;11.10;81.44
13241;BME280;6687;47.790;7.322;2022-12-29T08:37:28;98684.97;;;11.10;81.82
13241;BME280;6687;47.790;7.322;2022-12-29T08:39:54;98689.28;;;11.13;81.59
13241;BME280;6687;47.790;7.322;2022-12-29T08:42:21;98699.63;;;11.19;81.49
13241;BME280;6687;47.790;7.322;2022-12-29T08:44:48;98691.88;;;11.13;81.01
13241;BME280;6687;47.790;7.322;2022-12-29T08:47:16;98697.88;;;11.21;80.74
13241;BME280;6687;47.790;7.322;2022-12-29T08:49:43;98708.25;;;11.24;81.02
13241;BME280;6687;47.790;7.322;2022-12-29T08:52:09;98699.56;;;11.28;80.32
13241;BME280;6687;47.790;7.322;2022-12-29T08:54:36;98703.00;;;11.33;80.45
13241;BME280;6687;47.790;7.322;2022-12-29T08:57:03;98701.28;;;11.32;79.95
13241;BME280;6687;47.790;7.322;2022-12-29T08:59:30;98714.25;;;11.32;78.96
13241;BME280;6687;47.790;7.322;2022-12-29T09:01:56;98733.25;;;11.31;79.53
13241;BME280;6687;47.790;7.322;2022-12-29T09:04:24;98726.38;;;11.26;80.42
13241;BME280;6687;47.790;7.322;2022-12-29T09:06:52;98729.81;;;11.31;81.31
13241;BME280;6687;47.790;7.322;2022-12-29T09:09:20;98724.66;;;11.22;82.61
13241;BME280;6687;47.790;7.322;2022-12-29T09:11:46;98729.00;;;11.24;83.08
13241;BME280;6687;47.790;7.322;2022-12-29T09:14:13;98728.97;;;11.27;83.84
13241;BME280;6687;47.790;7.322;2022-12-29T09:16:40;98736.72;;;11.38;82.77
13241;BME280;6687;47.790;7.322;2022-12-29T09:19:26;98736.72;;;11.38;82.86
13241;BME280;6687;47.790;7.322;2022-12-29T09:21:53;98733.22;;;11.42;83.10
13241;BME280;6687;47.790;7.322;2022-12-29T09:24:20;98742.75;;;11.39;83.77
13241;BME280;6687;47.790;7.322;2022-12-29T09:26:46;98747.06;;;11.41;83.19
13241;BME280;6687;47.790;7.322;2022-12-29T09:29:13;98735.78;;;11.47;83.12
13241;BME280;6687;47.790;7.322;2022-12-29T09:31:41;98742.69;;;11.54;82.67
13241;BME280;6687;47.790;7.322;2022-12-29T09:34:07;98738.34;;;11.56;82.36
13241;BME280;6687;47.790;7.322;2022-12-29T09:36:36;98736.53;;;11.67;82.07
13241;BME280;6687;47.790;7.322;2022-12-29T09:39:02;98744.31;;;11.70;81.74
13241;BME280;6687;47.790;7.322;2022-12-29T09:41:35;98744.31;;;11.70;81.12
13241;BME280;6687;47.790;7.322;2022-12-29T09:44:08;98751.16;;;11.81;81.04
13241;BME280;6687;47.790;7.322;2022-12-29T09:46:40;98760.63;;;11.89;79.93
13241;BME280;6687;47.790;7.322;2022-12-29T09:49:18;98754.50;;;12.01;80.09
13241;BME280;6687;47.790;7.322;2022-12-29T09:51:51;98759.72;;;11.98;79.27
13241;BME280;6687;47.790;7.322;2022-12-29T09:54:32;98754.44;;;12.07;79.24
13241;BME280;6687;47.790;7.322;2022-12-29T09:57:02;98755.34;;;12.08;79.14
13241;BME280;6687;47.790;7.322;2022-12-29T09:59:37;98768.31;;;12.06;78.93
13241;BME280;6687;47.790;7.322;2022-12-29T10:02:15;98760.50;;;12.09;78.85
13241;BME280;6687;47.790;7.322;2022-12-29T10:04:47;98758.72;;;12.18;79.43
13241;BME280;6687;47.790;7.322;2022-12-29T10:07:24;98765.56;;;12.28;79.13
13241;BME280;6687;47.790;7.322;2022-12-29T10:09:59;98757.78;;;12.28;79.06
13241;BME280;6687;47.790;7.322;2022-12-29T10:12:35;98751.66;;;12.33;78.90
13241;BME280;6687;47.790;7.322;2022-12-29T10:15:12;98743.94;;;12.23;78.84
13241;BME280;6687;47.790;7.322;2022-12-29T10:17:48;98738.81;;;12.17;78.89
13241;BME280;6687;47.790;7.322;2022-12-29T10:20:29;98748.25;;;12.27;78.92
13241;BME280;6687;47.790;7.322;2022-12-29T10:23:18;98736.09;;;12.30;78.23
13241;BME280;6687;47.790;7.322;2022-12-29T10:25:46;98726.53;;;12.34;77.78
13241;BME280;6687;47.790;7.322;2022-12-29T10:28:18;98728.31;;;12.29;78.05
13241;BME280;6687;47.790;7.322;2022-12-29T10:30:47;98727.34;;;12.41;78.21
13241;BME280;6687;47.790;7.322;2022-12-29T10:33:18;98710.03;;;12.40;78.32
13241;BME280;6687;47.790;7.322;2022-12-29T10:35:47;98709.97;;;12.46;76.96
13241;BME280;6687;47.790;7.322;2022-12-29T10:38:22;98708.16;;;12.54;78.24
13241;BME280;6687;47.790;7.322;2022-12-29T10:40:54;98718.69;;;12.40;79.13
13241;BME280;6687;47.790;7.322;2022-12-29T10:43:26;98716.09;;;12.40;78.98
13241;BME280;6687;47.790;7.322;2022-12-29T10:45:55;98716.94;;;12.42;79.14
13241;BME280;6687;47.790;7.322;2022-12-29T10:48:25;98710.03;;;12.38;79.05
13241;BME280;6687;47.790;7.322;2022-12-29T10:50:57;98719.47;;;12.48;78.88
13241;BME280;6687;47.790;7.322;2022-12-29T10:53:30;98714.28;;;12.48;78.08
13241;BME280;6687;47.790;7.322;2022-12-29T10:56:01;98715.06;;;12.57;78.25
13241;BME280;6687;47.790;7.322;2022-12-29T10:58:30;98715.81;;;12.68;78.13
13241;BME280;6687;47.790;7.322;2022-12-29T11:00:58;98708.03;;;12.63;77.77
13241;BME280;6687;47.790;7.322;2022-12-29T11:06:17;98708.72;;;12.79;77.50
13241;BME280;6687;47.790;7.322;2022-12-29T11:08:53;98713.91;;;12.85;77.68
13241;BME280;6687;47.790;7.322;2022-12-29T11:11:25;98707.72;;;12.94;77.26
13241;BME280;6687;47.790;7.322;2022-12-29T11:13:57;98718.13;;;12.94;77.19
13241;BME280;6687;47.790;7.322;2022-12-29T11:16:29;98713.84;;;12.90;77.60
13241;BME280;6687;47.790;7.322;2022-12-29T11:18:57;98709.53;;;12.87;76.13
13241;BME280;6687;47.790;7.322;2022-12-29T11:21:27;98712.06;;;12.93;76.62
13241;BME280;6687;47.790;7.322;2022-12-29T11:23:59;98705.03;;;12.99;76.97
13241;BME280;6687;47.790;7.322;2022-12-29T11:26:27;98705.78;;;13.11;76.62
13241;BME280;6687;47.790;7.322;2022-12-29T11:29:21;98711.81;;;13.15;76.55
13241;BME280;6687;47.790;7.322;2022-12-29T11:31:50;98709.16;;;13.17;76.88
13241;BME280;6687;47.790;7.322;2022-12-29T11:34:20;98697.88;;;13.18;76.30
13241;BME280;6687;47.790;7.322;2022-12-29T11:36:47;98699.69;;;13.11;76.57
13241;BME280;6687;47.790;7.322;2022-12-29T11:39:28;98698.91;;;13.06;76.68
13241;BME280;6687;47.790;7.322;2022-12-29T11:41:56;98698.75;;;13.18;76.65
13241;BME280;6687;47.790;7.322;2022-12-29T11:44:24;98710.91;;;13.18;77.67
13241;BME280;6687;47.790;7.322;2022-12-29T11:46:51;98691.88;;;13.11;80.03
13241;BME280;6687;47.790;7.322;2022-12-29T11:49:20;98695.16;;;13.27;79.12
13241;BME280;6687;47.790;7.322;2022-12-29T11:51:50;98696.03;;;13.27;80.60
13241;BME280;6687;47.790;7.322;2022-12-29T11:54:23;98689.19;;;13.20;82.61
13241;BME280;6687;47.790;7.322;2022-12-29T11:56:53;98687.50;;;13.16;82.22
13241;BME280;6687;47.790;7.322;2022-12-29T11:59:24;98683.06;;;13.23;81.23
13241;BME280;6687;47.790;7.322;2022-12-29T12:01:57;98679.59;;;13.24;80.33
13241;BME280;6687;47.790;7.322;2022-12-29T12:04:26;98677.00;;;13.22;81.26
13241;BME280;6687;47.790;7.322;2022-12-29T12:07:00;98682.25;;;13.19;79.94
13241;BME280;6687;47.790;7.322;2022-12-29T12:09:31;98668.41;;;13.17;80.30
13241;BME280;6687;47.790;7.322;2022-12-29T12:12:02;98665.59;;;13.34;79.57
13241;BME280;6687;47.790;7.322;2022-12-29T12:14:32;98664.06;;;13.19;80.19
13241;BME280;6687;47.790;7.322;2022-12-29T12:17:05;98660.56;;;13.20;80.23
13241;BME280;6687;47.790;7.322;2022-12-29T12:19:44;98662.22;;;13.27;79.84
13241;BME280;6687;47.790;7.322;2022-12-29T12:22:17;98658.72;;;13.28;79.72
13241;BME280;6687;47.790;7.322;2022-12-29T12:24:50;98652.59;;;13.32;79.36
13241;BME280;6687;47.790;7.322;2022-12-29T12:27:24;98654.41;;;13.26;79.25
13241;BME280;6687;47.790;7.322;2022-12-29T12:29:57;98645.59;;;13.38;79.37
13241;BME280;6687;47.790;7.322;2022-12-29T12:32:35;98642.09;;;13.39;78.12
13241;BME280;6687;47.790;7.322;2022-12-29T12:35:11;98642.91;;;13.44;78.20
13241;BME280;6687;47.790;7.322;2022-12-29T12:38:09;98637.38;;;13.65;78.26
13241;BME280;6687;47.790;7.322;2022-12-29T12:40:51;98632.16;;;13.67;78.40
13241;BME280;6687;47.790;7.322;2022-12-29T12:43:36;98626.44;;;13.43;78.05
13241;BME280;6687;47.790;7.322;2022-12-29T12:46:15;98634.97;;;13.53;77.82
13241;BME280;6687;47.790;7.322;2022-12-29T12:49:05;98623.66;;;13.54;78.40
13241;BME280;6687;47.790;7.322;2022-12-29T12:51:44;98628.88;;;13.54;78.15
13241;BME280;6687;47.790;7.322;2022-12-29T12:54:27;98621.28;;;13.39;77.87
13241;BME280;6687;47.790;7.322;2022-12-29T12:57:09;98623.63;;;13.57;76.69
13241;BME280;6687;47.790;7.322;2022-12-29T12:59:50;98626.97;;;13.64;76.50
13241;BME280;6687;47.790;7.322;2022-12-29T13:02:30;98622.56;;;13.69;76.51
13241;BME280;6687;47.790;7.322;2022-12-29T13:05:12;98627.28;;;13.47;75.82
13241;BME280;6687;47.790;7.322;2022-12-29T13:07:50;98626.56;;;13.36;76.41
13241;BME280;6687;47.790;7.322;2022-12-29T13:10:40;98626.41;;;13.45;76.75
13241;BME280;6687;47.790;7.322;2022-12-29T13:13:27;98630.75;;;13.44;77.30
13241;BME280;6687;47.790;7.322;2022-12-29T13:16:06;98621.13;;;13.51;77.21
13241;BME280;6687;47.790;7.322;2022-12-29T13:18:46;98627.28;;;13.47;75.92
13241;BME280;6687;47.790;7.322;2022-12-29T13:21:25;98611.47;;;13.56;75.59
13241;BME280;6687;47.790;7.322;2022-12-29T13:23:58;98612.41;;;13.53;77.52
13241;BME280;6687;47.790;7.322;2022-12-29T13:26:32;98618.84;;;13.26;75.07
13241;BME280;6687;47.790;7.322;2022-12-29T13:29:06;98621.44;;;13.29;77.58
13241;BME280;6687;47.790;7.322;2022-12-29T13:31:45;98616.34;;;13.20;78.86
13241;BME280;6687;47.790;7.322;2022-12-29T13:34:20;98612.63;;;13.38;79.89
13241;BME280;6687;47.790;7.322;2022-12-29T13:36:53;98616.19;;;13.32;80.28
13241;BME280;6687;47.790;7.322;2022-12-29T13:39:24;98606.75;;;13.24;79.58
13241;BME280;6687;47.790;7.322;2022-12-29T13:41:53;98606.09;;;13.09;80.12
13241;BME280;6687;47.790;7.322;2022-12-29T13:44:25;98607.22;;;12.90;79.68
13241;BME280;6687;47.790;7.322;2022-12-29T13:46:56;98613.00;;;13.10;80.81
13241;BME280;6687;47.790;7.322;2022-12-29T13:49:26;98609.38;;;13.22;81.39
13241;BME280;6687;47.790;7.322;2022-12-29T13:51:55;98617.31;;;13.13;81.08
13241;BME280;6687;47.790;7.322;2022-12-29T13:54:30;98610.47;;;13.06;81.07
13241;BME280;6687;47.790;7.322;2022-12-29T13:57:08;98608.59;;;13.16;80.34
13241;BME280;6687;47.790;7.322;2022-12-29T13:59:42;98617.97;;;13.27;80.97
13241;BME280;6687;47.790;7.322;2022-12-29T14:02:19;98598.28;;;13.09;80.29
13241;BME280;6687;47.790;7.322;2022-12-29T14:04:56;98611.03;;;13.26;80.21
13241;BME280;6687;47.790;7.322;2022-12-29T14:07:23;98614.53;;;13.25;80.05
13241;BME280;6687;47.790;7.322;2022-12-29T14:09:50;98607.53;;;13.30;80.57
13241;BME280;6687;47.790;7.322;2022-12-29T14:12:28;98607.50;;;13.33;79.71
13241;BME280;6687;47.790;7.322;2022-12-29T14:15:06;98614.47;;;13.31;80.07
13241;BME280;6687;47.790;7.322;2022-12-29T14:17:42;98613.63;;;13.29;80.13
13241;BME280;6687;47.790;7.322;2022-12-29T14:20:17;98621.44;;;13.26;79.70
13241;BME280;6687;47.790;7.322;2022-12-29T14:22:56;98623.84;;;13.43;79.76
13241;BME280;6687;47.790;7.322;2022-12-29T14:25:57;98629.94;;;13.41;79.62
13241;BME280;6687;47.790;7.322;2022-12-29T14:28:26;98631.69;;;13.39;80.07
13241;BME280;6687;47.790;7.322;2022-12-29T14:30:54;98631.66;;;13.42;79.63
13241;BME280;6687;47.790;7.322;2022-12-29T14:33:26;98629.94;;;13.41;79.56
13241;BME280;6687;47.790;7.322;2022-12-29T14:35:53;98640.41;;;13.38;79.77
13241;BME280;6687;47.790;7.322;2022-12-29T14:38:24;98650.72;;;13.44;80.04
13241;BME280;6687;47.790;7.322;2022-12-29T14:40:51;98650.91;;;13.31;79.73
13241;BME280;6687;47.790;7.322;2022-12-29T14:43:23;98654.38;;;13.30;79.40
13241;BME280;6687;47.790;7.322;2022-12-29T14:45:58;98664.00;;;13.21;81.02
13241;BME280;6687;47.790;7.322;2022-12-29T14:48:34;98651.97;;;13.15;82.39
13241;BME280;6687;47.790;7.322;2022-12-29T14:51:03;98657.00;;;13.27;81.23
13241;BME280;6687;47.790;7.322;2022-12-29T14:53:45;98655.38;;;13.19;82.15
13241;BME280;6687;47.790;7.322;2022-12-29T14:56:14;98649.59;;;12.97;82.77
13241;BME280;6687;47.790;7.322;2022-12-29T14:58:47;98654.78;;;13.00;83.81
13241;BME280;6687;47.790;7.322;2022-12-29T15:01:19;98661.72;;;12.98;84.08
13241;BME280;6687;47.790;7.322;2022-12-29T15:03:49;98672.25;;;12.88;84.68
13241;BME280;6687;47.790;7.322;2022-12-29T15:06:18;98662.59;;;12.95;84.87
13241;BME280;6687;47.790;7.322;2022-12-29T15:08:50;98667.78;;;12.97;84.67
13241;BME280;6687;47.790;7.322;2022-12-29T15:11:20;98671.38;;;12.89;84.69
13241;BME280;6687;47.790;7.322;2022-12-29T15:13:47;98667.88;;;12.89;85.19
13241;BME280;6687;47.790;7.322;2022-12-29T15:16:22;98660.00;;;12.97;84.44
13241;BME280;6687;47.790;7.322;2022-12-29T15:18:51;98663.56;;;12.89;84.97
13241;BME280;6687;47.790;7.322;2022-12-29T15:21:27;98659.22;;;12.90;85.01
13241;BME280;6687;47.790;7.322;2022-12-29T15:23:55;98653.44;;;12.66;85.70
13241;BME280;6687;47.790;7.322;2022-12-29T15:26:22;98651.59;;;12.76;85.87
13241;BME280;6687;47.790;7.322;2022-12-29T15:28:51;98653.50;;;12.60;86.72
13241;BME280;6687;47.790;7.322;2022-12-29T15:31:21;98657.00;;;12.58;86.64
13241;BME280;6687;47.790;7.322;2022-12-29T15:33:51;98662.22;;;12.58;86.53
13241;BME280;6687;47.790;7.322;2022-12-29T15:36:19;98650.84;;;12.63;87.02
13241;BME280;6687;47.790;7.322;2022-12-29T15:38:47;98662.97;;;12.66;86.27
13241;BME280;6687;47.790;7.322;2022-12-29T15:41:26;98657.81;;;12.61;86.71
13241;BME280;6687;47.790;7.322;2022-12-29T15:44:08;98657.00;;;12.58;86.79
13241;BME280;6687;47.790;7.322;2022-12-29T15:46:40;98656.19;;;12.51;86.90
13241;BME280;6687;47.790;7.322;2022-12-29T15:49:08;98662.22;;;12.54;87.08
13241;BME280;6687;47.790;7.322;2022-12-29T15:51:38;98656.97;;;12.61;86.81
13241;BME280;6687;47.790;7.322;2022-12-29T15:54:06;98667.31;;;12.65;86.78
13241;BME280;6687;47.790;7.322;2022-12-29T15:56:40;98653.50;;;12.62;86.89
13241;BME280;6687;47.790;7.322;2022-12-29T15:59:22;98668.19;;;12.66;86.84
13241;BME280;6687;47.790;7.322;2022-12-29T16:01:50;98663.00;;;12.64;86.52
13241;BME280;6687;47.790;7.322;2022-12-29T16:04:19;98666.44;;;12.65;86.83
13241;BME280;6687;47.790;7.322;2022-12-29T16:06:54;98666.50;;;12.62;86.93
13241;BME280;6687;47.790;7.322;2022-12-29T16:09:29;98661.38;;;12.56;86.45
13241;BME280;6687;47.790;7.322;2022-12-29T16:11:58;98681.19;;;12.63;86.73
13241;BME280;6687;47.790;7.322;2022-12-29T16:14:30;98679.56;;;12.52;87.34
13241;BME280;6687;47.790;7.322;2022-12-29T16:17:00;98689.25;;;12.40;88.00
13241;BME280;6687;47.790;7.322;2022-12-29T16:19:33;98679.63;;;12.49;87.71
13241;BME280;6687;47.790;7.322;2022-12-29T16:22:02;98682.31;;;12.39;87.66
13241;BME280;6687;47.790;7.322;2022-12-29T16:24:31;98684.00;;;12.44;87.92
13241;BME280;6687;47.790;7.322;2022-12-29T16:27:05;98685.84;;;12.33;89.09
13241;BME280;6687;47.790;7.322;2022-12-29T16:29:34;98691.72;;;12.50;88.27
13241;BME280;6687;47.790;7.322;2022-12-29T16:32:02;98691.84;;;12.38;88.37
13241;BME280;6687;47.790;7.322;2022-12-29T16:34:46;98688.53;;;12.24;89.52
13241;BME280;6687;47.790;7.322;2022-12-29T16:37:28;98690.09;;;12.42;88.74
13241;BME280;6687;47.790;7.322;2022-12-29T16:39:55;98685.75;;;12.39;89.07
13241;BME280;6687;47.790;7.322;2022-12-29T16:42:45;98697.97;;;12.29;89.41
13241;BME280;6687;47.790;7.322;2022-12-29T16:48:33;98694.59;;;12.21;90.24
13241;BME280;6687;47.790;7.322;2022-12-29T16:51:04;98698.09;;;12.17;90.47
13241;BME280;6687;47.790;7.322;2022-12-29T16:53:34;98698.81;;;12.33;89.66
13241;BME280;6687;47.790;7.322;2022-12-29T16:56:05;98698.81;;;12.36;88.77
13241;BME280;6687;47.790;7.322;2022-12-29T16:58:34;98699.72;;;12.32;89.26
13241;BME280;6687;47.790;7.322;2022-12-29T17:01:03;98717.06;;;12.28;89.65
13241;BME280;6687;47.790;7.322;2022-12-29T17:03:33;98697.97;;;12.29;88.79
13241;BME280;6687;47.790;7.322;2022-12-29T17:06:03;98707.56;;;12.26;89.29
13241;BME280;6687;47.790;7.322;2022-12-29T17:08:39;98701.59;;;12.16;89.84
13241;BME280;6687;47.790;7.322;2022-12-29T17:11:19;98707.66;;;12.13;90.01
13241;BME280;6687;47.790;7.322;2022-12-29T17:14:04;98699.91;;;12.12;90.22
13241;BME280;6687;47.790;7.322;2022-12-29T17:16:31;98703.28;;;12.19;90.02
13241;BME280;6687;47.790;7.322;2022-12-29T17:18:58;98703.28;;;12.17;89.50
13241;BME280;6687;47.790;7.322;2022-12-29T17:21:26;98704.25;;;12.05;90.47
13241;BME280;6687;47.790;7.322;2022-12-29T17:23:53;98697.25;;;12.17;89.73
13241;BME280;6687;47.790;7.322;2022-12-29T17:26:19;98709.34;;;12.19;89.94
13241;BME280;6687;47.790;7.322;2022-12-29T17:28:46;98696.47;;;12.07;90.24
13241;BME280;6687;47.790;7.322;2022-12-29T17:31:13;98699.91;;;12.07;89.97
13241;BME280;6687;47.790;7.322;2022-12-29T17:33:40;98695.59;;;12.06;90.94
13241;BME280;6687;47.790;7.322;2022-12-29T17:36:08;98698.16;;;12.14;90.19
13241;BME280;6687;47.790;7.322;2022-12-29T17:38:38;98707.69;;;12.10;90.39
13241;BME280;6687;47.790;7.322;2022-12-29T17:41:10;98704.25;;;12.08;90.61
13241;BME280;6687;47.790;7.322;2022-12-29T17:43:39;98711.13;;;12.16;89.50
13241;BME280;6687;47.790;7.322;2022-12-29T17:46:06;98710.34;;;12.04;90.31
13241;BME280;6687;47.790;7.322;2022-12-29T17:48:33;98701.66;;;12.08;90.16
13241;BME280;6687;47.790;7.322;2022-12-29T17:51:00;98703.34;;;12.09;90.13
13241;BME280;6687;47.790;7.322;2022-12-29T17:53:28;98702.44;;;12.13;89.66
13241;BME280;6687;47.790;7.322;2022-12-29T17:55:57;98702.50;;;12.10;89.93
13241;BME280;6687;47.790;7.322;2022-12-29T17:58:25;98704.25;;;12.08;90.00
13241;BME280;6687;47.790;7.322;2022-12-29T18:00:54;98707.75;;;12.04;89.73
13241;BME280;6687;47.790;7.322;2022-12-29T18:03:27;98712.00;;;12.11;89.58
13241;BME280;6687;47.790;7.322;2022-12-29T18:05:54;98712.00;;;12.11;89.73
13241;BME280;6687;47.790;7.322;2022-12-29T18:08:21;98709.44;;;12.05;89.85
13241;BME280;6687;47.790;7.322;2022-12-29T18:10:49;98711.19;;;12.06;90.18
13241;BME280;6687;47.790;7.322;2022-12-29T18:13:21;98703.34;;;12.09;89.67
13241;BME280;6687;47.790;7.322;2022-12-29T18:15:49;98709.41;;;12.11;89.65
13241;BME280;6687;47.790;7.322;2022-12-29T18:18:18;98713.78;;;12.06;89.75
13241;BME280;6687;47.790;7.322;2022-12-29T18:20:46;98706.84;;;12.05;89.79
13241;BME280;6687;47.790;7.322;2022-12-29T18:23:18;98710.34;;;12.04;89.77
13241;BME280;6687;47.790;7.322;2022-12-29T18:25:48;98702.56;;;12.04;89.96
13241;BME280;6687;47.790;7.322;2022-12-29T18:28:16;98708.59;;;12.03;89.93
13241;BME280;6687;47.790;7.322;2022-12-29T18:30:44;98701.66;;;12.07;89.52
13241;BME280;6687;47.790;7.322;2022-12-29T18:33:13;98704.25;;;12.05;89.40
13241;BME280;6687;47.790;7.322;2022-12-29T18:35:43;98708.66;;;11.99;89.84
13241;BME280;6687;47.790;7.322;2022-12-29T18:38:11;98708.72;;;11.83;90.19
13241;BME280;6687;47.790;7.322;2022-12-29T18:40:39;98711.19;;;12.03;90.15
13241;BME280;6687;47.790;7.322;2022-12-29T18:43:06;98707.75;;;12.04;89.75
13241;BME280;6687;47.790;7.322;2022-12-29T18:45:33;98711.25;;;11.97;89.71
13241;BME280;6687;47.790;7.322;2022-12-29T18:48:01;98711.25;;;12.00;89.81
13241;BME280;6687;47.790;7.322;2022-12-29T18:50:27;98711.19;;;12.03;89.69
13241;BME280;6687;47.790;7.322;2022-12-29T18:52:54;98725.03;;;12.05;89.05
13241;BME280;6687;47.790;7.322;2022-12-29T18:55:23;98716.44;;;11.97;89.23
13241;BME280;6687;47.790;7.322;2022-12-29T18:57:50;98719.94;;;11.96;89.62
13241;BME280;6687;47.790;7.322;2022-12-29T19:00:19;98722.44;;;12.05;89.24
13241;BME280;6687;47.790;7.322;2022-12-29T19:02:47;98723.31;;;12.04;88.90
13241;BME280;6687;47.790;7.322;2022-12-29T19:05:22;98732.06;;;11.94;89.58
13241;BME280;6687;47.790;7.322;2022-12-29T19:07:49;98728.53;;;12.03;89.19
13241;BME280;6687;47.790;7.322;2022-12-29T19:10:16;98725.13;;;11.93;89.29
13241;BME280;6687;47.790;7.322;2022-12-29T19:12:43;98723.28;;;12.07;88.95
13241;BME280;6687;47.790;7.322;2022-12-29T19:15:19;98728.53;;;12.01;89.02
13241;BME280;6687;47.790;7.322;2022-12-29T19:17:45;98724.22;;;12.02;89.35
13241;BME280;6687;47.790;7.322;2022-12-29T19:20:26;98718.13;;;12.04;89.17
13241;BME280;6687;47.790;7.322;2022-12-29T19:22:53;98730.22;;;12.05;89.04
13241;BME280;6687;47.790;7.322;2022-12-29T19:25:21;98721.63;;;12.00;88.72
13241;BME280;6687;47.790;7.322;2022-12-29T19:27:48;98730.22;;;12.05;88.78
13241;BME280;6687;47.790;7.322;2022-12-29T19:30:15;98732.13;;;11.75;89.28
13241;BME280;6687;47.790;7.322;2022-12-29T19:32:42;98732.06;;;11.91;89.58
13241;BME280;6687;47.790;7.322;2022-12-29T19:35:10;98740.66;;;12.01;89.52
13241;BME280;6687;47.790;7.322;2022-12-29T19:37:38;98739.84;;;11.94;89.76
13241;BME280;6687;47.790;7.322;2022-12-29T19:40:06;98742.41;;;12.00;88.95
13241;BME280;6687;47.790;7.322;2022-12-29T19:42:33;98745.84;;;12.02;88.65
13241;BME280;6687;47.790;7.322;2022-12-29T19:45:01;98744.94;;;12.05;88.78
13241;BME280;6687;47.790;7.322;2022-12-29T19:47:28;98749.34;;;12.00;88.82